Time,TemperatureF,DewpointF,PressureIn,WindDirection,WindDirectionDegrees,WindSpeedMPH,WindSpeedGustMPH,Humidity,HourlyPrecipIn,Conditions,Clouds,dailyrainin,SoftwareType,DateUTC
2013-04-06 00:00:00,47.7,22.7,29.80,NNE,28,2.0,5.0,37,0.00,,,0.00,Wunderground v.1.15,2013-04-06 06:00:00,
2013-04-06 00:30:00,48.5,23.4,29.77,North,0,1.0,12.0,37,0.00,,,0.00,Wunderground v.1.15,2013-04-06 06:30:00,
2013-04-06 01:00:00,48.9,23.1,29.77,North,0,1.0,1.0,36,0.00,,,0.00,Wunderground v.1.15,2013-04-06 07:00:00,
2013-04-06 01:30:00,48.6,24.1,29.80,NNE,13,1.0,12.0,38,0.00,,,0.00,Wunderground v.1.15,2013-04-06 07:30:00,
2013-04-06 02:00:00,48.5,23.4,29.80,NNE,25,4.0,4.0,37,0.00,,,0.00,Wunderground v.1.15,2013-04-06 08:00:00,
2013-04-06 02:30:00,48.3,21.9,29.77,NE,34,4.0,5.0,35,0.00,,,0.00,Wunderground v.1.15,2013-04-06 08:30:00,
2013-04-06 03:00:00,48.5,19.2,29.75,NE,35,3.0,3.0,31,0.00,,,0.00,Wunderground v.1.15,2013-04-06 09:00:00,
2013-04-06 03:30:00,48.2,17.4,29.76,NNE,30,1.0,2.0,29,0.00,,,0.00,Wunderground v.1.15,2013-04-06 09:30:00,
2013-04-06 04:00:00,48.2,16.6,29.77,North,10,3.0,3.0,28,0.00,,,0.00,Wunderground v.1.15,2013-04-06 10:00:00,
2013-04-06 04:30:00,47.7,16.1,29.77,NE,42,1.0,1.0,28,0.00,,,0.00,Wunderground v.1.15,2013-04-06 10:30:00,
2013-04-06 05:00:00,44.9,17.5,29.78,NE,42,0.0,0.0,33,0.00,,,0.00,Wunderground v.1.15,2013-04-06 11:00:00,
2013-04-06 05:30:00,41.8,14.1,29.81,NE,42,1.0,12.0,32,0.00,,,0.00,Wunderground v.1.15,2013-04-06 11:30:00,
2013-04-06 06:00:00,42.6,11.7,29.82,NE,42,1.0,2.0,28,0.00,,,0.00,Wunderground v.1.15,2013-04-06 12:00:00,
2013-04-06 06:30:00,42.1,11.3,29.83,North,11,0.0,8.0,28,0.00,,,0.00,Wunderground v.1.15,2013-04-06 12:30:00,
2013-04-06 07:00:00,41.1,11.2,29.86,NNE,13,1.0,1.0,29,0.00,,,0.00,Wunderground v.1.15,2013-04-06 13:00:00,
2013-04-06 07:30:00,38.6,13.9,29.90,NNE,13,0.0,8.0,36,0.00,,,0.00,Wunderground v.1.15,2013-04-06 13:30:00,
2013-04-06 08:00:00,38.9,14.2,29.92,NNE,13,0.0,8.0,36,0.00,,,0.00,Wunderground v.1.15,2013-04-06 14:00:00,
2013-04-06 08:30:00,41.6,18.4,29.95,NNE,13,0.0,0.0,39,0.00,,,0.00,Wunderground v.1.15,2013-04-06 14:30:00,
2013-04-06 09:00:00,47.9,15.5,29.92,SSW,212,1.0,6.0,27,0.00,,,0.00,Wunderground v.1.15,2013-04-06 15:00:00,
2013-04-06 09:30:00,49.8,17.1,29.90,SE,138,5.0,5.0,27,0.00,,,0.00,Wunderground v.1.15,2013-04-06 15:30:00,
2013-04-06 10:00:00,50.7,18.7,29.89,SW,236,8.0,10.0,28,0.00,,,0.00,Wunderground v.1.15,2013-04-06 16:00:00,
2013-04-06 10:30:00,52.2,19.2,29.89,SSW,200,2.0,2.0,27,0.00,,,0.00,Wunderground v.1.15,2013-04-06 16:30:00,
2013-04-06 11:00:00,52.9,17.0,29.88,SSW,206,5.0,8.0,24,0.00,,,0.00,Wunderground v.1.15,2013-04-06 17:00:00,
2013-04-06 11:30:00,53.1,16.2,29.90,WNW,282,9.0,9.0,23,0.00,,,0.00,Wunderground v.1.15,2013-04-06 17:30:00,
2013-04-06 12:00:00,54.4,15.2,29.88,SW,220,8.0,17.0,21,0.00,,,0.00,Wunderground v.1.15,2013-04-06 18:00:00,
2013-04-06 12:30:00,54.7,16.5,29.86,North,0,6.0,7.0,22,0.00,,,0.00,Wunderground v.1.15,2013-04-06 18:30:00,
2013-04-06 13:00:00,57.0,12.5,29.84,NNW,336,5.0,7.0,17,0.00,,,0.00,Wunderground v.1.15,2013-04-06 19:00:00,
2013-04-06 13:30:00,57.0,11.2,29.84,SW,215,6.0,24.0,16,0.00,,,0.00,Wunderground v.1.15,2013-04-06 19:30:00,
2013-04-06 14:00:00,58.4,13.7,29.81,South,182,8.0,8.0,17,0.00,,,0.00,Wunderground v.1.15,2013-04-06 20:00:00,
2013-04-06 14:30:00,57.6,13.0,29.80,SW,230,6.0,28.0,17,0.00,,,0.00,Wunderground v.1.15,2013-04-06 20:30:00,
2013-04-06 15:00:00,58.0,14.7,29.77,WSW,240,8.0,8.0,18,0.00,,,0.00,Wunderground v.1.15,2013-04-06 21:00:00,
2013-04-06 15:30:00,58.4,12.3,29.77,SW,230,4.0,4.0,16,0.00,,,0.00,Wunderground v.1.15,2013-04-06 21:30:00,
2013-04-06 16:00:00,59.2,13.0,29.76,SSE,161,4.0,7.0,16,0.00,,,0.00,Wunderground v.1.15,2013-04-06 22:00:00,
2013-04-06 16:30:00,58.9,12.7,29.78,West,263,6.0,6.0,16,0.00,,,0.00,Wunderground v.1.15,2013-04-06 22:30:00,
2013-04-06 17:00:00,58.0,14.7,29.78,South,176,6.0,24.0,18,0.00,,,0.00,Wunderground v.1.15,2013-04-06 23:00:00,
2013-04-06 17:30:00,58.0,14.7,29.78,SSE,155,6.0,6.0,18,0.00,,,0.00,Wunderground v.1.15,2013-04-06 23:30:00,
2013-04-06 18:30:00,55.4,14.9,29.83,NNW,342,5.0,5.0,20,0.00,,,0.00,Wunderground v.1.15,2013-04-07 00:30:00,
2013-04-06 19:00:00,54.1,13.9,29.83,SSW,209,4.0,5.0,20,0.00,,,0.00,Wunderground v.1.15,2013-04-07 01:00:00,
2013-04-06 19:30:00,53.9,12.5,29.86,SSW,193,3.0,3.0,19,0.00,,,0.00,Wunderground v.1.15,2013-04-07 01:30:00,
2013-04-06 20:00:00,53.1,11.9,29.86,SSW,212,1.0,1.0,19,0.00,,,0.00,Wunderground v.1.15,2013-04-07 02:00:00,
2013-04-06 20:30:00,53.2,13.1,29.78,South,169,0.0,24.0,20,0.00,,,0.00,Wunderground v.1.15,2013-04-07 02:30:00,
2013-04-06 21:00:00,52.8,12.8,29.79,NE,34,1.0,1.0,20,0.00,,,0.00,Wunderground v.1.15,2013-04-07 03:00:00,
2013-04-06 22:00:00,51.1,13.5,29.80,NE,49,0.0,11.0,22,0.00,,,0.00,Wunderground v.1.15,2013-04-07 04:00:00,
2013-04-06 22:30:00,48.2,14.9,29.80,NE,49,0.0,11.0,26,0.00,,,0.00,Wunderground v.1.15,2013-04-07 04:30:00,
2013-04-06 23:00:00,47.6,14.3,29.81,NE,49,0.0,11.0,26,0.00,,,0.00,Wunderground v.1.15,2013-04-07 05:00:00,
2013-04-06 23:30:00,46.5,15.9,29.80,NE,49,0.0,12.0,29,0.00,,,0.00,Wunderground v.1.15,2013-04-07 05:30:00,